createdAt,value
2023-01-07T00:01:12.065Z,2.60
2023-01-07T00:04:53.804Z,3.35
2023-01-07T00:08:37.548Z,3.78
2023-01-07T00:12:19.335Z,2.75
2023-01-07T00:16:03.712Z,4.22
2023-01-07T00:19:45.539Z,2.65
2023-01-07T00:23:30.073Z,2.72
2023-01-07T00:27:11.860Z,2.78
2023-01-07T00:30:58.894Z,3.00
2023-01-07T00:34:40.642Z,2.95
2023-01-07T00:38:22.406Z,3.35
2023-01-07T00:42:24.567Z,2.47
2023-01-07T00:46:06.359Z,2.60
2023-01-07T00:49:48.133Z,3.15
2023-01-07T00:53:30.397Z,3.05
2023-01-07T00:57:15.206Z,2.63
2023-01-07T01:01:01.752Z,3.13
2023-01-07T01:04:43.637Z,3.97
2023-01-07T01:08:25.453Z,2.70
2023-01-07T01:12:07.248Z,2.85
2023-01-07T01:15:49.750Z,3.03
2023-01-07T01:19:31.551Z,2.80
2023-01-07T01:23:13.367Z,2.30
2023-01-07T01:26:55.107Z,2.60
2023-01-07T01:30:36.875Z,3.58
2023-01-07T01:34:18.797Z,3.45
2023-01-07T01:38:01.095Z,2.70
2023-01-07T01:41:42.827Z,3.22
2023-01-07T01:45:26.184Z,2.45
2023-01-07T01:49:23.744Z,3.00
2023-01-07T01:53:10.792Z,3.10
2023-01-07T01:56:55.198Z,2.00
2023-01-07T02:00:37.402Z,1.83
2023-01-07T02:04:22.749Z,2.00
2023-01-07T02:08:04.661Z,1.88
2023-01-07T02:11:57.903Z,2.05
2023-01-07T02:15:54.644Z,2.85
2023-01-07T02:20:09.658Z,3.42
2023-01-07T02:24:06.419Z,2.67
2023-01-07T02:27:54.106Z,2.38
2023-01-07T02:32:03.059Z,3.03
2023-01-07T02:36:03.511Z,3.15
2023-01-07T02:39:59.320Z,2.85
2023-01-07T02:43:56.932Z,2.95
2023-01-07T02:47:44.444Z,3.63
2023-01-07T02:51:38.363Z,3.25
2023-01-07T02:55:35.133Z,4.45
2023-01-07T02:59:48.451Z,3.28
2023-01-07T03:03:55.051Z,3.47
2023-01-07T03:08:04.817Z,3.22
2023-01-07T03:11:59.009Z,3.58
2023-01-07T03:15:47.860Z,3.45
2023-01-07T03:19:32.801Z,2.78
2023-01-07T03:23:18.755Z,3.58
2023-01-07T03:27:03.134Z,3.88
2023-01-07T03:30:46.840Z,3.67
2023-01-07T03:34:30.515Z,2.65
2023-01-07T03:38:14.931Z,2.70
2023-01-07T03:42:15.365Z,3.35
2023-01-07T03:45:59.582Z,2.67
2023-01-07T03:49:41.468Z,3.50
2023-01-07T03:53:23.186Z,2.72
2023-01-07T03:57:05.156Z,3.53
2023-01-07T04:00:46.938Z,3.92
2023-01-07T04:04:28.862Z,3.55
2023-01-07T04:08:10.654Z,3.67
2023-01-07T04:11:52.491Z,4.05
2023-01-07T04:15:34.449Z,3.20
2023-01-07T04:19:16.190Z,4.43
2023-01-07T04:22:57.931Z,3.20
2023-01-07T04:26:39.763Z,3.38
2023-01-07T04:30:21.490Z,4.28
2023-01-07T04:34:03.252Z,2.75
2023-01-07T04:37:44.989Z,3.00
2023-01-07T04:41:26.732Z,3.88
2023-01-07T04:45:08.733Z,2.88
2023-01-07T04:48:50.654Z,2.85
2023-01-07T04:52:32.474Z,2.70
2023-01-07T04:56:14.924Z,2.97
2023-01-07T04:59:56.656Z,2.20
2023-01-07T05:03:38.475Z,3.53
2023-01-07T05:07:20.255Z,2.63
2023-01-07T05:11:03.926Z,3.70
2023-01-07T05:14:45.706Z,3.10
2023-01-07T05:18:27.479Z,3.05
2023-01-07T05:22:09.225Z,2.63
2023-01-07T05:25:51.073Z,2.78
2023-01-07T05:29:32.916Z,4.10
2023-01-07T05:33:14.654Z,2.90
2023-01-07T05:36:56.551Z,3.35
2023-01-07T05:40:38.328Z,2.53
2023-01-07T05:44:20.080Z,3.45
2023-01-07T05:48:01.829Z,3.65
2023-01-07T05:51:43.592Z,3.00
2023-01-07T05:55:25.327Z,2.72
2023-01-07T05:59:07.050Z,3.15
2023-01-07T06:02:48.815Z,3.38
2023-01-07T06:06:30.523Z,3.05
2023-01-07T06:10:12.323Z,3.03
2023-01-07T06:13:54.081Z,3.28
2023-01-07T06:17:36.023Z,4.00
2023-01-07T06:21:18.304Z,2.70
2023-01-07T06:25:00.084Z,2.30
2023-01-07T06:28:41.857Z,3.40
2023-01-07T06:32:23.758Z,3.00
2023-01-07T06:36:05.869Z,3.10
2023-01-07T06:39:47.742Z,2.90
2023-01-07T06:43:29.981Z,2.97
2023-01-07T06:47:11.832Z,2.40
2023-01-07T06:50:53.647Z,2.88
2023-01-07T06:54:35.671Z,2.53
2023-01-07T06:58:18.221Z,2.88
2023-01-07T07:02:00.152Z,2.45
2023-01-07T07:05:42.198Z,2.83
2023-01-07T07:09:24.039Z,2.53
2023-01-07T07:13:05.876Z,2.75
2023-01-07T07:16:49.540Z,2.67
2023-01-07T07:20:31.274Z,2.47
2023-01-07T07:24:13.084Z,2.63
2023-01-07T07:27:54.853Z,2.75
2023-01-07T07:31:37.551Z,3.10
2023-01-07T07:35:19.410Z,3.03
2023-01-07T07:39:01.196Z,2.40
2023-01-07T07:43:10.991Z,2.83
2023-01-07T07:46:44.954Z,2.78
2023-01-07T07:50:27.438Z,2.45
2023-01-07T07:54:09.208Z,2.92
2023-01-07T07:57:57.063Z,2.85
2023-01-07T08:01:39.017Z,3.17
2023-01-07T08:05:20.928Z,2.30
2023-01-07T08:09:03.012Z,3.67
2023-01-07T08:12:44.750Z,5.00
2023-01-07T08:16:26.738Z,3.78
2023-01-07T08:20:09.366Z,3.83
2023-01-07T08:23:51.159Z,2.95
2023-01-07T08:27:32.873Z,2.53
2023-01-07T08:31:14.679Z,2.50
2023-01-07T08:34:56.409Z,2.72
2023-01-07T08:38:38.252Z,4.35
2023-01-07T08:42:19.964Z,3.08
2023-01-07T08:46:02.030Z,3.25
2023-01-07T08:49:43.759Z,3.33
2023-01-07T08:53:25.552Z,3.85
2023-01-07T08:57:07.280Z,3.08
2023-01-07T09:00:49.080Z,2.95
2023-01-07T09:04:31.039Z,3.53
2023-01-07T09:08:12.925Z,2.90
2023-01-07T09:11:54.681Z,2.88
2023-01-07T09:15:36.499Z,2.63
2023-01-07T09:19:18.443Z,2.70
2023-01-07T09:23:00.260Z,2.20
2023-01-07T09:26:43.543Z,2.78
2023-01-07T09:30:25.459Z,2.33
2023-01-07T09:34:07.256Z,2.53
2023-01-07T09:37:49.086Z,2.50
2023-01-07T09:41:41.544Z,2.60
2023-01-07T09:45:37.074Z,3.08
2023-01-07T09:49:19.609Z,3.10
2023-01-07T09:53:05.398Z,4.20
2023-01-07T09:56:47.466Z,2.55
2023-01-07T10:00:31.112Z,3.92
2023-01-07T10:04:49.827Z,3.03
2023-01-07T10:08:52.440Z,3.25
2023-01-07T10:12:52.395Z,3.42
2023-01-07T10:16:50.121Z,2.30
2023-01-07T10:20:50.753Z,3.40
2023-01-07T10:24:41.347Z,1.63
2023-01-07T10:28:39.951Z,2.70
2023-01-07T10:32:25.584Z,2.65
2023-01-07T10:36:29.196Z,2.58
2023-01-07T10:40:42.519Z,2.28
2023-01-07T10:44:43.927Z,2.67
2023-01-07T10:48:55.814Z,2.55
2023-01-07T10:52:44.218Z,2.63
2023-01-07T10:56:37.084Z,2.95
2023-01-07T11:00:20.116Z,2.97
2023-01-07T11:04:02.057Z,2.13
2023-01-07T11:08:04.815Z,2.00
2023-01-07T11:11:47.450Z,2.30
2023-01-07T11:15:46.998Z,2.63
2023-01-07T11:19:49.107Z,2.45
2023-01-07T11:23:37.974Z,2.53
2023-01-07T11:27:21.957Z,1.60
2023-01-07T11:31:03.852Z,1.10
2023-01-07T11:35:03.492Z,1.02
2023-01-07T11:38:46.381Z,0.50
2023-01-07T11:42:38.624Z,0.80
2023-01-07T11:46:25.985Z,1.27
2023-01-07T11:50:22.247Z,0.65
2023-01-07T11:54:04.127Z,0.85
2023-01-07T11:57:56.792Z,0.70
2023-01-07T12:01:47.840Z,0.93
2023-01-07T12:05:30.441Z,0.90
2023-01-07T12:09:15.525Z,1.30
2023-01-07T12:12:59.165Z,1.33
2023-01-07T12:16:41.545Z,1.42
2023-01-07T12:20:45.926Z,1.40
2023-01-07T12:24:53.063Z,0.90
2023-01-07T12:29:01.239Z,1.75
2023-01-07T12:32:51.991Z,1.20
2023-01-07T12:36:46.185Z,1.33
2023-01-07T12:40:35.633Z,1.00
2023-01-07T12:44:22.164Z,0.90
2023-01-07T12:48:07.893Z,1.65
2023-01-07T12:52:06.193Z,2.08
2023-01-07T12:55:52.325Z,1.13
2023-01-07T12:59:47.285Z,1.20
2023-01-07T13:03:49.925Z,1.58
2023-01-07T13:07:40.488Z,1.52
2023-01-07T13:11:55.306Z,1.40
2023-01-07T13:15:40.343Z,1.10
2023-01-07T13:19:22.108Z,1.80
2023-01-07T13:23:05.217Z,1.73
2023-01-07T13:26:52.343Z,2.13
2023-01-07T13:30:37.223Z,1.83
2023-01-07T13:34:21.992Z,1.98
2023-01-07T13:38:39.046Z,1.83
2023-01-07T13:42:46.695Z,2.70
2023-01-07T13:46:35.388Z,2.88
2023-01-07T13:50:37.451Z,1.92
2023-01-07T13:54:47.989Z,2.03
2023-01-07T13:58:41.905Z,2.33
2023-01-07T14:02:26.118Z,2.88
2023-01-07T14:06:19.994Z,3.67
2023-01-07T14:10:01.798Z,2.80
2023-01-07T14:14:13.124Z,3.17
2023-01-07T14:18:02.301Z,2.65
2023-01-07T14:22:02.957Z,2.63
2023-01-07T14:26:15.024Z,2.95
2023-01-07T14:30:11.128Z,3.63
2023-01-07T14:34:04.945Z,2.33
2023-01-07T14:37:47.076Z,2.67
2023-01-07T14:41:28.897Z,3.30
2023-01-07T14:45:41.948Z,2.38
2023-01-07T14:49:32.425Z,2.90
2023-01-07T14:53:27.718Z,3.47
2023-01-07T14:57:12.276Z,3.50
2023-01-07T15:01:08.853Z,2.03
2023-01-07T15:05:15.210Z,1.60
2023-01-07T15:09:27.541Z,2.17
2023-01-07T15:13:34.651Z,1.13
2023-01-07T15:17:16.988Z,1.38
2023-01-07T15:21:19.071Z,0.60
2023-01-07T15:25:19.147Z,1.17
2023-01-07T15:29:24.912Z,0.75
2023-01-07T15:33:29.767Z,0.80
2023-01-07T15:37:14.415Z,1.70
2023-01-07T15:40:59.057Z,0.95
2023-01-07T15:44:42.423Z,1.58
2023-01-07T15:48:24.221Z,1.17
2023-01-07T15:52:25.552Z,1.10
2023-01-07T15:56:12.391Z,1.25
2023-01-07T15:59:55.488Z,1.55
2023-01-07T16:03:39.208Z,1.75
2023-01-07T16:07:31.188Z,1.33
2023-01-07T16:11:29.058Z,1.30
2023-01-07T16:15:30.200Z,0.88
2023-01-07T16:19:20.045Z,0.80
2023-01-07T16:23:18.773Z,1.30
2023-01-07T16:27:05.166Z,0.70
2023-01-07T16:30:48.520Z,0.80
2023-01-07T16:34:30.318Z,0.75
2023-01-07T16:38:14.031Z,0.55
2023-01-07T16:42:16.471Z,0.60
2023-01-07T16:46:08.532Z,0.65
2023-01-07T16:49:55.386Z,0.60
2023-01-07T16:53:37.207Z,0.65
2023-01-07T16:57:41.627Z,0.52
2023-01-07T17:01:33.778Z,0.85
2023-01-07T17:05:22.085Z,0.60
2023-01-07T17:09:04.274Z,0.68
2023-01-07T17:13:02.725Z,0.63
2023-01-07T17:16:58.112Z,0.55
2023-01-07T17:20:45.600Z,1.27
2023-01-07T17:24:30.405Z,1.05
2023-01-07T17:28:19.155Z,0.93
2023-01-07T17:32:01.679Z,1.77
2023-01-07T17:35:44.801Z,0.47
2023-01-07T17:39:26.720Z,0.70
2023-01-07T17:43:35.937Z,0.50
2023-01-07T17:47:22.181Z,0.47
2023-01-07T17:51:05.341Z,0.60
2023-01-07T17:54:47.120Z,1.10
2023-01-07T17:58:32.057Z,0.80
2023-01-07T18:02:18.907Z,0.77
2023-01-07T18:06:04.681Z,0.93
2023-01-07T18:09:46.768Z,1.60
2023-01-07T18:13:29.132Z,0.90
2023-01-07T18:17:10.906Z,0.75
2023-01-07T18:20:54.201Z,1.00
2023-01-07T18:24:36.072Z,0.98
2023-01-07T18:28:17.970Z,1.10
2023-01-07T18:31:59.814Z,0.70
2023-01-07T18:35:41.671Z,1.55
2023-01-07T18:39:23.573Z,0.80
2023-01-07T18:43:05.752Z,1.08
2023-01-07T18:46:47.750Z,1.48
2023-01-07T18:50:30.324Z,1.55
2023-01-07T18:54:12.193Z,1.50
2023-01-07T18:57:53.931Z,1.63
2023-01-07T19:01:35.833Z,1.70
2023-01-07T19:05:17.737Z,1.70
2023-01-07T19:08:59.510Z,2.95
2023-01-07T19:12:41.326Z,2.30
2023-01-07T19:16:23.208Z,3.05
2023-01-07T19:20:05.441Z,2.85
2023-01-07T19:23:48.260Z,2.58
2023-01-07T19:27:30.008Z,3.20
2023-01-07T19:31:12.023Z,2.60
2023-01-07T19:34:53.779Z,3.05
2023-01-07T19:38:40.274Z,2.83
2023-01-07T19:42:22.017Z,3.37
2023-01-07T19:46:03.857Z,3.67
2023-01-07T19:49:45.677Z,3.85
2023-01-07T19:53:30.368Z,3.65
2023-01-07T19:57:12.143Z,4.18
2023-01-07T20:00:54.078Z,3.13
2023-01-07T20:04:35.903Z,3.47
2023-01-07T20:08:17.729Z,4.25
2023-01-07T20:11:59.526Z,4.07
2023-01-07T20:15:41.645Z,4.15
2023-01-07T20:19:24.083Z,4.15
2023-01-07T20:23:05.904Z,3.60
2023-01-07T20:26:48.008Z,3.92
2023-01-07T20:30:29.967Z,4.47
2023-01-07T20:34:11.767Z,4.05
2023-01-07T20:37:53.528Z,4.68
2023-01-07T20:41:35.876Z,4.35
2023-01-07T20:45:17.888Z,4.53
2023-01-07T20:48:59.887Z,4.85
2023-01-07T20:52:42.055Z,3.72
2023-01-07T20:56:24.332Z,3.10
2023-01-07T21:00:06.794Z,5.95
2023-01-07T21:03:48.943Z,4.57
2023-01-07T21:07:33.171Z,4.90
2023-01-07T21:11:20.419Z,5.50
2023-01-07T21:18:44.283Z,4.68
2023-01-07T21:22:26.089Z,4.57
2023-01-07T21:26:08.974Z,5.53
2023-01-07T21:29:51.180Z,4.18
2023-01-07T21:33:33.556Z,4.28
2023-01-07T21:37:15.379Z,4.50
2023-01-07T21:40:57.137Z,4.28
2023-01-07T21:44:38.905Z,3.92
2023-01-07T21:48:20.833Z,3.88
2023-01-07T21:52:02.664Z,4.53
2023-01-07T21:55:44.598Z,4.80
2023-01-07T21:59:26.469Z,4.15
2023-01-07T22:03:08.223Z,3.30
2023-01-07T22:06:50.014Z,5.18
2023-01-07T22:10:31.749Z,4.22
2023-01-07T22:14:16.793Z,4.53
2023-01-07T22:17:58.528Z,4.03
2023-01-07T22:21:40.384Z,4.65
2023-01-07T22:25:22.239Z,4.60
2023-01-07T22:29:07.653Z,3.85
2023-01-07T22:32:49.503Z,4.88
2023-01-07T22:36:46.236Z,5.22
2023-01-07T22:40:31.755Z,4.32
2023-01-07T22:44:19.856Z,2.83
2023-01-07T22:48:03.255Z,3.53
2023-01-07T22:51:47.993Z,3.05
2023-01-07T22:55:30.015Z,4.65
2023-01-07T22:59:12.158Z,4.47
2023-01-07T23:02:53.923Z,4.13
2023-01-07T23:06:35.946Z,4.57
2023-01-07T23:10:17.702Z,4.47
2023-01-07T23:13:59.815Z,3.65
2023-01-07T23:17:41.946Z,3.50
2023-01-07T23:21:23.747Z,4.20
2023-01-07T23:25:06.168Z,4.13
2023-01-07T23:28:47.939Z,3.30
2023-01-07T23:32:29.748Z,4.75
2023-01-07T23:36:11.583Z,4.10
2023-01-07T23:39:53.352Z,5.03
2023-01-07T23:43:35.531Z,4.18
2023-01-07T23:47:17.329Z,3.72
2023-01-07T23:51:11.028Z,4.93
2023-01-07T23:54:52.778Z,4.43
2023-01-07T23:58:35.701Z,4.32
